KSAZ

Staples Municipal Airport

Staples, Minnesota, USA
METAR KSAZ 190535Z AUTO 00000KT 10SM OVC023 13/12 A3003 RMK AO2
Observed Flight Rules
Sep-19 @ 05:35 UTC (20 minutes ago) Marginal Visual Flight Rules
Visibility Clouds
10 miles
  • Overcast at 2,300' AGL
Temperatures Readings
Current 13°C / 55°F
Dewpoint 12°C / 54°F
Humidity 94%
Altimeter 30.03" Hg
Pressure 1017 hPa
Elevation 392
METAR KSAZ 190535Z AUTO 00000KT 10SM OVC023 13/12 A3003 RMK AO2
Observed Flight Rules
Sep-19 @ 05:35 UTC
(20 minutes ago)
MVFR
Clouds
  • Overcast at 2,300' AGL
Temperature Dewpoint
13°C / 55°F 12°C / 54°F
Humidity Altimeter Pressure
94% 30.03" Hg 1017 hPa